Time;durP1;ratioP1;P1;durP2;ratioP2;P2;SDS_P1;SDS_P2;PMS_P1;PMS_P2;Temp;Humidity;BMP_temperature;BMP_pressure;BME280_temperature;BME280_humidity;BME280_pressure;Samples;Min_cycle;Max_cycle;Signal;HPM_P1;HPM_P2
2020/12/13 00:00:15;;;;;;;9.05;5.68;;;10.00;80.50;;;;;;4986411;28;20379;-75
2020/12/13 00:02:42;;;;;;;9.77;6.05;;;10.00;80.50;;;;;;4977123;28;20045;-75
2020/12/13 00:05:08;;;;;;;8.93;5.45;;;10.00;80.50;;;;;;4975932;28;20027;-76
2020/12/13 00:07:34;;;;;;;9.45;5.85;;;10.00;80.50;;;;;;4982844;28;20031;-76
2020/12/13 00:10:00;;;;;;;9.63;6.03;;;10.00;80.50;;;;;;4985705;28;20507;-76
2020/12/13 00:12:26;;;;;;;8.80;5.50;;;10.00;80.50;;;;;;4967429;28;20398;-76
2020/12/13 00:14:52;;;;;;;10.15;6.25;;;10.00;80.50;;;;;;4995281;28;20042;-76
2020/12/13 00:17:18;;;;;;;10.13;6.68;;;10.00;80.50;;;;;;5010234;28;20050;-75
2020/12/13 00:19:43;;;;;;;9.95;6.22;;;10.00;80.50;;;;;;4973703;28;20065;-76
2020/12/13 00:22:09;;;;;;;9.45;5.97;;;10.00;80.60;;;;;;4987493;28;20069;-75
2020/12/13 00:24:35;;;;;;;9.60;6.50;;;10.00;80.60;;;;;;4978742;28;20054;-75
2020/12/13 00:27:01;;;;;;;9.60;6.22;;;10.00;80.60;;;;;;4971006;28;20726;-76
2020/12/13 00:29:27;;;;;;;10.75;6.57;;;10.00;80.60;;;;;;4975258;28;20031;-76
2020/12/13 00:31:52;;;;;;;9.52;6.15;;;10.00;80.60;;;;;;4984221;28;20541;-77
2020/12/13 00:34:18;;;;;;;10.07;5.70;;;10.00;81.20;;;;;;4987139;28;20387;-76
2020/12/13 00:36:44;;;;;;;10.13;6.30;;;10.00;80.60;;;;;;4982137;28;20085;-76
2020/12/13 00:39:09;;;;;;;11.32;6.75;;;10.00;80.60;;;;;;5011538;28;20478;-75
2020/12/13 00:41:35;;;;;;;11.27;7.03;;;9.90;80.50;;;;;;5006271;28;20074;-75
2020/12/13 00:44:01;;;;;;;9.90;6.43;;;9.90;80.50;;;;;;4975522;28;20476;-75
2020/12/13 00:46:27;;;;;;;10.25;6.80;;;9.90;80.60;;;;;;4977008;28;20057;-76
2020/12/13 00:48:53;;;;;;;11.02;6.72;;;9.90;80.60;;;;;;4994548;28;20066;-76
2020/12/13 00:51:25;;;;;;;11.85;6.90;;;9.90;80.60;;;;;;4975487;28;20376;-78
2020/12/13 00:53:51;;;;;;;12.00;7.15;;;9.90;80.60;;;;;;4975306;28;20448;-76
2020/12/13 00:56:18;;;;;;;10.52;6.38;;;9.90;80.60;;;;;;4975259;28;20093;-75
2020/12/13 00:58:44;;;;;;;10.85;6.60;;;9.90;80.60;;;;;;4959199;28;20027;-76
2020/12/13 01:01:10;;;;;;;9.00;6.28;;;9.90;80.60;;;;;;4976466;28;20046;-76
2020/12/13 01:03:36;;;;;;;9.70;6.00;;;9.90;80.60;;;;;;4994324;28;20378;-75
2020/12/13 01:06:02;;;;;;;10.60;6.53;;;9.90;80.60;;;;;;5009797;28;20034;-76
2020/12/13 01:08:27;;;;;;;10.25;6.55;;;9.90;80.60;;;;;;4974262;28;20117;-75
2020/12/13 01:10:53;;;;;;;9.88;6.63;;;9.90;80.60;;;;;;4975631;28;20059;-76
2020/12/13 01:13:19;;;;;;;10.10;6.80;;;9.90;80.60;;;;;;4992411;28;20038;-75
2020/12/13 01:15:45;;;;;;;10.45;6.38;;;9.90;80.60;;;;;;5000149;28;20138;-78
2020/12/13 01:18:10;;;;;;;10.00;6.80;;;9.90;80.60;;;;;;4974456;28;20113;-76
2020/12/13 01:20:36;;;;;;;10.60;6.45;;;9.80;80.50;;;;;;4963905;28;20042;-75
2020/12/13 01:23:02;;;;;;;10.82;6.25;;;9.80;80.60;;;;;;5009830;28;20457;-76
2020/12/13 01:25:28;;;;;;;10.48;6.28;;;9.90;80.60;;;;;;4990898;28;20472;-76
2020/12/13 01:27:53;;;;;;;9.88;6.22;;;9.90;80.60;;;;;;4994481;28;20026;-76
2020/12/13 01:30:19;;;;;;;10.07;6.07;;;9.90;80.60;;;;;;4989220;28;20035;-76
2020/12/13 01:32:45;;;;;;;11.15;6.93;;;9.80;80.60;;;;;;4981584;28;20463;-76
2020/12/13 01:35:11;;;;;;;10.50;6.68;;;9.80;80.60;;;;;;4984674;28;20061;-76
2020/12/13 01:37:38;;;;;;;9.55;6.00;;;9.90;81.20;;;;;;4975211;28;20022;-75
2020/12/13 01:40:06;;;;;;;9.18;6.10;;;9.80;80.60;;;;;;4982879;28;20522;-76
2020/12/13 01:42:42;;;;;;;10.20;6.43;;;9.80;80.60;;;;;;4975338;28;20031;-76
2020/12/13 01:45:11;;;;;;;11.05;6.43;;;9.80;80.60;;;;;;4981768;28;20058;-75
2020/12/13 01:47:37;;;;;;;9.73;5.75;;;9.80;80.60;;;;;;4976805;28;20027;-75
2020/12/13 01:50:07;;;;;;;11.45;6.70;;;9.80;80.60;;;;;;4976195;28;20038;-75
2020/12/13 01:52:47;;;;;;;10.13;6.35;;;9.80;80.60;;;;;;4974808;28;20037;-75
2020/12/13 01:55:18;;;;;;;10.65;6.25;;;9.80;80.60;;;;;;4975384;28;20045;-79
2020/12/13 01:57:47;;;;;;;9.65;5.93;;;9.80;80.60;;;;;;4975063;28;20378;-76
2020/12/13 02:00:16;;;;;;;9.70;5.82;;;9.80;80.60;;;;;;4994462;28;20030;-79
2020/12/13 02:02:53;;;;;;;10.32;6.10;;;9.70;80.60;;;;;;4978017;28;20042;-76
2020/12/13 02:05:20;;;;;;;9.40;5.70;;;9.80;80.70;;;;;;4973948;28;20426;-76
2020/12/13 02:07:49;;;;;;;9.90;6.30;;;9.80;80.60;;;;;;4989872;28;20026;-75
2020/12/13 02:10:15;;;;;;;9.55;5.82;;;9.70;80.60;;;;;;4992913;28;20081;-76
2020/12/13 02:12:41;;;;;;;9.05;5.80;;;9.80;80.70;;;;;;4980147;28;20062;-77
2020/12/13 02:15:08;;;;;;;10.00;6.38;;;9.70;80.60;;;;;;4958341;28;20475;-76
2020/12/13 02:17:36;;;;;;;11.43;7.10;;;9.70;80.60;;;;;;4994074;28;20506;-75
2020/12/13 02:20:08;;;;;;;10.27;6.28;;;9.70;80.60;;;;;;4992688;28;20211;-76
2020/12/13 02:22:41;;;;;;;9.43;5.78;;;9.80;80.70;;;;;;4997317;28;20026;-76
2020/12/13 02:25:11;;;;;;;10.32;5.90;;;9.70;80.60;;;;;;4964170;28;20085;-75
2020/12/13 02:27:38;;;;;;;10.25;6.55;;;9.70;80.60;;;;;;4956925;28;20041;-76
2020/12/13 02:30:05;;;;;;;9.70;5.85;;;9.70;80.60;;;;;;4983272;28;20021;-76
2020/12/13 02:32:30;;;;;;;10.35;6.75;;;9.70;80.60;;;;;;4992833;28;20076;-77
2020/12/13 02:34:56;;;;;;;9.35;6.15;;;9.70;80.60;;;;;;4957046;28;20454;-76
2020/12/13 02:37:22;;;;;;;9.18;5.88;;;9.70;80.60;;;;;;4972331;28;20038;-76
2020/12/13 02:39:48;;;;;;;9.98;5.90;;;9.70;80.70;;;;;;4972149;28;20030;-75
2020/12/13 02:42:14;;;;;;;10.07;6.32;;;9.70;80.60;;;;;;4984490;28;20050;-76
2020/12/13 02:44:40;;;;;;;9.98;5.80;;;9.70;80.70;;;;;;4972580;28;20031;-76
2020/12/13 02:47:05;;;;;;;9.98;6.47;;;9.70;80.60;;;;;;4956811;28;20042;-75
2020/12/13 02:49:31;;;;;;;9.73;5.72;;;9.70;80.70;;;;;;4972746;28;20038;-75
2020/12/13 02:51:57;;;;;;;10.45;6.15;;;9.70;80.70;;;;;;4969664;28;20042;-75
2020/12/13 02:54:22;;;;;;;9.38;5.60;;;9.70;80.70;;;;;;4974589;28;20035;-76
2020/12/13 02:56:48;;;;;;;8.93;5.53;;;9.70;80.70;;;;;;4962882;28;20037;-76
2020/12/13 02:59:14;;;;;;;9.93;6.03;;;9.70;80.70;;;;;;4988447;28;20031;-76
2020/12/13 03:01:39;;;;;;;9.35;6.03;;;9.70;80.70;;;;;;4956594;28;20042;-75
2020/12/13 03:04:05;;;;;;;9.52;6.03;;;9.70;80.70;;;;;;4973124;28;20054;-75
2020/12/13 03:06:31;;;;;;;9.23;5.82;;;9.70;80.70;;;;;;4972706;28;20038;-75
2020/12/13 03:08:57;;;;;;;9.93;6.03;;;9.70;81.30;;;;;;4973912;28;20031;-75
2020/12/13 03:11:23;;;;;;;10.35;5.60;;;9.70;80.70;;;;;;4961219;28;20061;-76
2020/12/13 03:13:50;;;;;;;9.60;6.05;;;9.70;80.70;;;;;;4956970;28;20031;-76
2020/12/13 03:16:16;;;;;;;10.25;5.95;;;9.70;80.70;;;;;;4972777;28;20369;-75
2020/12/13 03:18:42;;;;;;;8.63;5.63;;;9.70;80.70;;;;;;4989246;28;20042;-79
2020/12/13 03:21:08;;;;;;;9.35;6.38;;;9.60;80.60;;;;;;4983771;28;20045;-75
2020/12/13 03:23:33;;;;;;;9.57;5.72;;;9.70;80.70;;;;;;4978436;28;20031;-75
2020/12/13 03:25:59;;;;;;;9.30;5.70;;;9.60;80.70;;;;;;4982235;28;20057;-76
2020/12/13 03:28:25;;;;;;;9.73;5.47;;;9.70;80.70;;;;;;5014948;28;20030;-75
2020/12/13 03:30:51;;;;;;;9.63;6.13;;;9.70;80.70;;;;;;4982435;28;20073;-75
2020/12/13 03:33:17;;;;;;;9.52;6.00;;;9.60;80.70;;;;;;4998447;28;20030;-75
2020/12/13 03:35:42;;;;;;;9.57;5.63;;;9.60;80.70;;;;;;4981961;28;20074;-76
2020/12/13 03:38:08;;;;;;;8.90;5.75;;;9.60;80.70;;;;;;4982021;28;20087;-76
2020/12/13 03:40:34;;;;;;;8.63;5.15;;;9.60;80.70;;;;;;4996534;28;20054;-76
2020/12/13 03:43:00;;;;;;;8.98;5.82;;;9.60;80.70;;;;;;4998546;28;20593;-75
2020/12/13 03:45:25;;;;;;;9.00;5.72;;;9.60;80.70;;;;;;4962598;28;20113;-75
2020/12/13 03:47:51;;;;;;;9.00;5.75;;;9.60;80.70;;;;;;4997717;28;20426;-75
2020/12/13 03:50:17;;;;;;;9.48;5.60;;;9.60;80.70;;;;;;4962676;28;20058;-76
2020/12/13 03:52:42;;;;;;;10.57;5.93;;;9.60;80.70;;;;;;4962815;28;20035;-76
2020/12/13 03:55:08;;;;;;;8.30;5.55;;;9.60;80.70;;;;;;4982031;28;20406;-76
2020/12/13 03:57:34;;;;;;;9.13;5.78;;;9.60;80.70;;;;;;4998564;28;20074;-76
2020/12/13 03:59:59;;;;;;;8.43;5.13;;;9.60;80.70;;;;;;4981008;28;20403;-75
2020/12/13 04:02:25;;;;;;;9.57;5.78;;;9.60;81.30;;;;;;4993811;28;20042;-76
2020/12/13 04:04:51;;;;;;;8.82;5.45;;;9.60;80.70;;;;;;4980339;28;20041;-75
2020/12/13 04:07:17;;;;;;;9.18;5.63;;;9.60;80.70;;;;;;4997237;28;20441;-76
2020/12/13 04:09:42;;;;;;;8.20;5.20;;;9.60;80.80;;;;;;5014429;28;20045;-76
2020/12/13 04:12:08;;;;;;;9.05;5.43;;;9.60;80.70;;;;;;4996207;28;20066;-75
2020/12/13 04:14:34;;;;;;;9.13;5.72;;;9.60;80.70;;;;;;4962286;28;20456;-75
2020/12/13 04:16:59;;;;;;;9.10;5.22;;;9.60;80.70;;;;;;4978934;28;20042;-75
2020/12/13 04:19:25;;;;;;;10.52;5.93;;;9.60;80.70;;;;;;4979104;28;20356;-76
2020/12/13 04:21:51;;;;;;;8.38;5.15;;;9.60;80.70;;;;;;4971478;28;20051;-76
2020/12/13 04:24:16;;;;;;;8.20;4.97;;;9.60;80.70;;;;;;4963110;28;20114;-75
2020/12/13 04:26:42;;;;;;;8.13;5.10;;;9.60;80.80;;;;;;4962850;28;20039;-76
2020/12/13 04:29:08;;;;;;;9.05;5.72;;;9.60;80.70;;;;;;4978928;28;20603;-76
2020/12/13 04:31:33;;;;;;;7.95;4.97;;;9.60;80.70;;;;;;4962193;28;20042;-76
2020/12/13 04:33:59;;;;;;;7.90;4.95;;;9.60;80.70;;;;;;4997562;28;20097;-75
2020/12/13 04:36:25;;;;;;;8.88;5.28;;;9.60;80.80;;;;;;5011175;28;20382;-75
2020/12/13 04:38:51;;;;;;;8.90;5.28;;;9.60;80.80;;;;;;4978061;28;20027;-76
2020/12/13 04:41:17;;;;;;;7.53;4.90;;;9.60;80.80;;;;;;4975000;28;20395;-76
2020/12/13 04:43:42;;;;;;;8.38;5.15;;;9.60;80.80;;;;;;4987801;28;20039;-75
2020/12/13 04:46:08;;;;;;;9.00;5.32;;;9.60;80.80;;;;;;4975118;28;20046;-76
2020/12/13 04:48:36;;;;;;;9.60;5.60;;;9.60;80.80;;;;;;4976820;28;20031;-76
2020/12/13 04:51:03;;;;;;;9.40;5.43;;;9.60;80.80;;;;;;4989118;28;20035;-75
2020/12/13 04:53:29;;;;;;;8.57;5.35;;;9.60;80.80;;;;;;4977886;28;20058;-76
2020/12/13 04:55:58;;;;;;;8.80;5.45;;;9.60;80.80;;;;;;4991242;28;20116;-76
2020/12/13 04:58:26;;;;;;;9.02;5.30;;;9.60;80.80;;;;;;4991011;28;20023;-78
2020/12/13 05:00:55;;;;;;;9.10;5.13;;;9.60;80.90;;;;;;4981843;28;20042;-76
2020/12/13 05:03:22;;;;;;;10.80;5.85;;;9.60;80.80;;;;;;4985059;28;20415;-75
2020/12/13 05:05:48;;;;;;;9.23;5.43;;;9.60;80.80;;;;;;4974884;28;20113;-76
2020/12/13 05:08:14;;;;;;;9.27;5.57;;;9.60;80.80;;;;;;4969382;28;20093;-76
2020/12/13 05:10:40;;;;;;;8.48;5.35;;;9.60;80.90;;;;;;4993919;28;20102;-76
2020/12/13 05:13:06;;;;;;;9.07;5.72;;;9.60;80.90;;;;;;4990131;28;20071;-75
2020/12/13 05:15:34;;;;;;;8.65;5.55;;;9.60;80.90;;;;;;4974190;28;20531;-76
2020/12/13 05:18:00;;;;;;;9.27;5.32;;;9.60;80.90;;;;;;4977262;28;20116;-76
2020/12/13 05:20:27;;;;;;;9.07;5.85;;;9.60;80.90;;;;;;4977228;28;20109;-76
2020/12/13 05:22:57;;;;;;;9.35;5.43;;;9.60;80.90;;;;;;4983233;28;20039;-76
2020/12/13 05:25:32;;;;;;;10.02;6.13;;;9.60;80.90;;;;;;4982723;28;20049;-78
2020/12/13 05:28:01;;;;;;;8.65;5.13;;;9.60;80.90;;;;;;5009728;28;20018;-75
2020/12/13 05:30:32;;;;;;;8.70;5.38;;;9.60;80.90;;;;;;4993268;28;20025;-76
2020/12/13 05:33:04;;;;;;;10.93;6.07;;;9.60;80.90;;;;;;4983454;28;20038;-75
2020/12/13 05:35:30;;;;;;;8.73;5.50;;;9.60;80.90;;;;;;4990984;28;20035;-76
2020/12/13 05:37:56;;;;;;;9.68;6.07;;;9.60;80.90;;;;;;4976293;28;20110;-75
2020/12/13 05:40:23;;;;;;;9.15;5.53;;;9.60;80.90;;;;;;4970084;28;20493;-75
2020/12/13 05:43:01;;;;;;;9.05;5.57;;;9.60;80.90;;;;;;4983338;28;20041;-76
2020/12/13 05:45:43;;;;;;;9.27;5.85;;;9.60;81.00;;;;;;4992508;28;20027;-75
2020/12/13 05:53:13;;;;;;;8.75;5.50;;;9.60;80.90;;;;;;4993161;28;20126;-80
2020/12/13 05:55:39;;;;;;;9.60;5.20;;;9.60;81.00;;;;;;4989980;28;20034;-75
2020/12/13 05:58:05;;;;;;;9.52;6.00;;;9.60;81.00;;;;;;4983881;28;20030;-75
2020/12/13 06:00:32;;;;;;;8.20;5.13;;;9.60;81.00;;;;;;4991778;28;20038;-76
2020/12/13 06:02:59;;;;;;;8.50;5.35;;;9.60;81.00;;;;;;4976040;28;20030;-76
2020/12/13 06:05:27;;;;;;;10.27;6.00;;;9.60;81.00;;;;;;4971100;28;20027;-76
2020/12/13 06:07:57;;;;;;;9.50;6.07;;;9.60;81.00;;;;;;4974086;28;20059;-74
2020/12/13 06:10:25;;;;;;;9.48;6.20;;;9.60;81.00;;;;;;4956924;28;20050;-76
2020/12/13 06:13:03;;;;;;;8.68;5.57;;;9.60;81.00;;;;;;4942928;28;20046;-76
2020/12/13 06:15:32;;;;;;;9.85;6.38;;;9.60;81.00;;;;;;4982348;28;20109;-76
2020/12/13 06:17:59;;;;;;;9.77;5.82;;;9.60;81.00;;;;;;4976656;28;20117;-75
2020/12/13 06:20:25;;;;;;;9.23;6.20;;;9.70;81.00;;;;;;4973030;28;20463;-75
2020/12/13 06:22:52;;;;;;;8.57;5.72;;;9.70;81.10;;;;;;4959288;28;20529;-75
2020/12/13 06:25:19;;;;;;;9.15;6.38;;;9.70;81.00;;;;;;4992503;28;20037;-75
2020/12/13 06:27:47;;;;;;;10.10;6.10;;;9.70;81.00;;;;;;4986272;28;20042;-76
2020/12/13 06:30:15;;;;;;;8.88;5.75;;;9.70;81.10;;;;;;4973539;28;20434;-77
2020/12/13 06:32:42;;;;;;;9.25;6.18;;;9.70;81.00;;;;;;4982142;28;20471;-75
2020/12/13 06:35:09;;;;;;;10.25;6.55;;;9.70;81.00;;;;;;4992500;28;20101;-76
2020/12/13 06:37:38;;;;;;;9.75;6.20;;;9.70;81.00;;;;;;5008898;28;20037;-75
2020/12/13 06:40:06;;;;;;;9.18;6.00;;;9.70;81.00;;;;;;4992378;28;20022;-75
2020/12/13 06:42:37;;;;;;;9.68;6.10;;;9.70;81.00;;;;;;4991907;28;20030;-75
2020/12/13 06:45:04;;;;;;;9.23;6.15;;;9.70;81.00;;;;;;4992035;28;20046;-75
2020/12/13 06:47:31;;;;;;;8.73;6.07;;;9.70;81.00;;;;;;4975735;28;20022;-76
2020/12/13 06:49:57;;;;;;;8.73;5.57;;;9.80;81.00;;;;;;4993680;28;20538;-76
2020/12/13 06:52:30;;;;;;;8.98;6.03;;;9.70;80.90;;;;;;4974141;28;20034;-76
2020/12/13 06:54:59;;;;;;;9.20;5.47;;;9.80;81.00;;;;;;4992498;28;20498;-75
2020/12/13 06:57:25;;;;;;;8.75;6.20;;;9.70;80.90;;;;;;4989465;28;20023;-75
2020/12/13 06:59:52;;;;;;;8.57;6.15;;;9.80;81.00;;;;;;4991457;28;20093;-75
2020/12/13 07:02:44;;;;;;;8.50;5.88;;;9.70;80.90;;;;;;4991709;28;20031;-75
2020/12/13 07:05:10;;;;;;;10.82;6.45;;;9.80;81.00;;;;;;4992883;28;20037;-75
2020/12/13 07:07:38;;;;;;;7.80;5.43;;;9.80;80.90;;;;;;5002985;28;20030;-75
2020/12/13 07:10:06;;;;;;;7.07;5.18;;;9.80;81.60;;;;;;4975015;28;20410;-75
2020/12/13 07:12:31;;;;;;;8.60;6.00;;;9.80;81.00;;;;;;4991591;28;20034;-75
2020/12/13 07:14:57;;;;;;;8.07;5.70;;;9.80;80.90;;;;;;4977881;28;20045;-75
2020/12/13 07:17:28;;;;;;;8.07;5.50;;;9.80;80.90;;;;;;4963260;28;20035;-78
2020/12/13 07:19:55;;;;;;;9.38;6.28;;;9.80;81.00;;;;;;4986809;28;20081;-75
2020/12/13 07:22:21;;;;;;;8.73;5.85;;;9.80;80.90;;;;;;4978025;28;20035;-75
2020/12/13 07:24:46;;;;;;;9.57;6.38;;;9.80;80.90;;;;;;4988275;28;20049;-75
2020/12/13 07:27:12;;;;;;;8.23;5.63;;;9.80;80.90;;;;;;4985919;28;20101;-75
2020/12/13 07:29:38;;;;;;;9.20;5.75;;;9.80;80.90;;;;;;4992768;28;20092;-76
2020/12/13 07:32:06;;;;;;;7.82;5.75;;;9.80;80.90;;;;;;4987280;28;20648;-76
2020/12/13 07:34:32;;;;;;;8.93;5.88;;;9.80;80.90;;;;;;4977423;28;20035;-76
2020/12/13 07:36:59;;;;;;;9.27;6.28;;;9.90;80.90;;;;;;4983191;28;20022;-76
2020/12/13 07:39:24;;;;;;;8.43;5.45;;;9.80;80.90;;;;;;4991717;28;20062;-73
2020/12/13 07:41:50;;;;;;;8.45;6.00;;;9.80;80.90;;;;;;4967280;28;20424;-76
2020/12/13 07:44:17;;;;;;;7.82;5.65;;;9.90;80.90;;;;;;4973388;28;20031;-76
2020/12/13 07:46:44;;;;;;;8.10;5.40;;;9.80;80.90;;;;;;4978169;28;20026;-76
2020/12/13 07:49:19;;;;;;;9.52;5.90;;;9.90;80.90;;;;;;5007463;28;20038;-76
2020/12/13 07:51:50;;;;;;;8.05;5.82;;;9.90;81.00;;;;;;4973844;28;20033;-77
2020/12/13 07:54:30;;;;;;;8.90;5.97;;;9.80;80.90;;;;;;4984875;28;20129;-76
2020/12/13 07:57:17;;;;;;;9.43;5.82;;;9.90;81.00;;;;;;4980074;28;20066;-76
2020/12/13 07:59:42;;;;;;;8.60;5.47;;;9.90;81.00;;;;;;4991736;28;20034;-76
2020/12/13 08:02:11;;;;;;;8.00;5.60;;;9.90;80.90;;;;;;4979111;28;20057;-76
2020/12/13 08:04:41;;;;;;;9.05;5.93;;;9.90;80.90;;;;;;4975677;28;20062;-77
2020/12/13 08:07:10;;;;;;;9.48;5.72;;;9.90;80.90;;;;;;4973584;28;20531;-76
2020/12/13 08:09:38;;;;;;;8.70;5.78;;;9.90;80.90;;;;;;4967958;28;20529;-76
2020/12/13 08:12:11;;;;;;;7.53;5.35;;;9.90;81.60;;;;;;4994434;28;20038;-76
2020/12/13 08:14:37;;;;;;;8.48;6.13;;;9.90;80.90;;;;;;4983711;28;20060;-76
2020/12/13 08:17:03;;;;;;;8.23;5.60;;;9.90;80.90;;;;;;4975654;28;20058;-75
2020/12/13 08:19:33;;;;;;;8.00;6.00;;;9.90;80.90;;;;;;4984358;28;20065;-76
2020/12/13 08:22:23;;;;;;;9.15;5.68;;;9.90;80.90;;;;;;4994758;28;20037;-75
2020/12/13 08:24:57;;;;;;;8.68;5.55;;;9.90;80.90;;;;;;4969219;28;20023;-75
2020/12/13 08:27:23;;;;;;;9.48;5.80;;;9.90;80.90;;;;;;4975132;28;20121;-76
2020/12/13 08:29:50;;;;;;;8.27;5.57;;;9.90;80.90;;;;;;4976435;28;20034;-77
2020/12/13 08:32:16;;;;;;;8.27;5.72;;;9.90;80.90;;;;;;4991037;28;20134;-76
2020/12/13 08:34:42;;;;;;;9.30;5.95;;;10.00;80.90;;;;;;4994501;28;20046;-76
2020/12/13 08:37:08;;;;;;;8.70;5.72;;;9.90;80.90;;;;;;4989521;28;20050;-77
2020/12/13 08:39:36;;;;;;;7.93;5.47;;;10.00;80.90;;;;;;4984047;28;20027;-77
2020/12/13 08:42:04;;;;;;;9.20;5.95;;;10.00;81.00;;;;;;4975107;28;20043;-76
2020/12/13 08:44:41;;;;;;;8.48;5.90;;;10.00;81.10;;;;;;4992091;28;20035;-74
2020/12/13 08:47:09;;;;;;;8.05;5.13;;;10.00;81.00;;;;;;4984108;28;20053;-74
2020/12/13 08:49:38;;;;;;;7.30;5.63;;;10.00;80.90;;;;;;4971862;28;20026;-74
2020/12/13 08:52:13;;;;;;;7.97;5.28;;;10.00;81.00;;;;;;4993882;28;20039;-76
2020/12/13 08:54:45;;;;;;;;;;;10.00;80.90;;;;;;4981144;28;20031;-77
2020/12/13 08:57:10;;;;;;;7.47;4.85;;;10.00;80.80;;;;;;4975258;28;20382;-77
2020/12/13 08:59:36;;;;;;;7.32;5.20;;;10.00;80.70;;;;;;4968223;28;20026;-77
2020/12/13 09:02:03;;;;;;;6.97;5.07;;;10.00;80.80;;;;;;4976403;28;20046;-77
2020/12/13 09:04:31;;;;;;;9.30;5.63;;;10.00;80.90;;;;;;4975430;28;20026;-76
2020/12/13 09:07:02;;;;;;;7.75;5.43;;;10.00;80.90;;;;;;4990793;28;20023;-77
2020/12/13 09:09:32;;;;;;;7.53;5.28;;;10.00;80.90;;;;;;4976106;28;20022;-77
2020/12/13 09:12:02;;;;;;;7.63;5.35;;;10.00;80.90;;;;;;4958656;28;20065;-77
2020/12/13 09:14:32;;;;;;;8.13;5.57;;;10.00;80.90;;;;;;4973960;28;20543;-76
2020/12/13 09:17:00;;;;;;;7.80;5.70;;;10.10;81.00;;;;;;4977808;28;20038;-77
2020/12/13 09:19:26;;;;;;;7.10;5.18;;;10.00;80.90;;;;;;4990799;28;20028;-75
2020/12/13 09:21:57;;;;;;;6.25;4.43;;;10.10;81.00;;;;;;4990169;28;20062;-74
2020/12/13 09:24:31;;;;;;;7.07;5.00;;;10.00;80.90;;;;;;4991006;28;20053;-74
2020/12/13 09:26:59;;;;;;;6.80;5.07;;;10.00;80.90;;;;;;4987342;28;20038;-77
2020/12/13 09:29:25;;;;;;;7.60;5.40;;;10.10;80.90;;;;;;4991173;28;20105;-77
2020/12/13 09:31:51;;;;;;;7.40;5.30;;;10.10;80.90;;;;;;4985649;28;20125;-77
2020/12/13 09:34:16;;;;;;;7.47;4.80;;;10.00;80.90;;;;;;4989005;28;20058;-77
2020/12/13 09:36:43;;;;;;;7.13;4.72;;;10.10;80.90;;;;;;4989256;28;20035;-77
2020/12/13 09:39:09;;;;;;;7.15;4.97;;;10.10;80.90;;;;;;5008576;28;20026;-76
2020/12/13 09:41:35;;;;;;;7.05;5.05;;;10.10;80.90;;;;;;4975833;28;20050;-76
2020/12/13 09:44:01;;;;;;;7.32;4.90;;;10.10;80.90;;;;;;4974389;28;20031;-76
2020/12/13 09:46:27;;;;;;;6.90;4.75;;;10.10;80.90;;;;;;4973429;28;20062;-77
2020/12/13 09:48:52;;;;;;;7.03;4.82;;;10.10;80.90;;;;;;4970449;28;20478;-79
2020/12/13 09:51:18;;;;;;;6.50;4.72;;;10.10;80.90;;;;;;4987988;28;20370;-77
2020/12/13 09:53:47;;;;;;;7.75;5.13;;;10.10;80.90;;;;;;4992366;28;20041;-78
2020/12/13 09:56:19;;;;;;;7.07;4.50;;;10.10;80.90;;;;;;4989871;28;20378;-78
2020/12/13 09:58:46;;;;;;;6.45;4.45;;;10.10;80.90;;;;;;4980160;28;20038;-77
2020/12/13 10:01:15;;;;;;;7.00;4.93;;;10.10;80.80;;;;;;4982752;28;20531;-78
2020/12/13 10:03:53;;;;;;;5.95;4.55;;;10.10;80.90;;;;;;4979831;28;20045;-77
2020/12/13 10:11:46;;;;;;;6.47;4.38;;;10.20;80.90;;;;;;4984104;28;20058;-77
2020/12/13 10:14:14;;;;;;;6.88;4.97;;;10.20;80.80;;;;;;4983464;28;20046;-78
2020/12/13 10:16:42;;;;;;;7.70;4.85;;;10.20;80.80;;;;;;4988169;28;20022;-77
2020/12/13 10:19:07;;;;;;;6.93;5.00;;;10.10;80.80;;;;;;4972196;28;20092;-78
2020/12/13 10:21:35;;;;;;;6.80;4.88;;;10.20;80.90;;;;;;5001198;28;20437;-78
2020/12/13 10:24:01;;;;;;;6.90;4.88;;;10.20;80.90;;;;;;4979879;28;20038;-77
2020/12/13 10:26:29;;;;;;;6.95;4.90;;;10.20;81.50;;;;;;4973190;28;20035;-77
2020/12/13 10:28:56;;;;;;;7.47;5.68;;;10.20;80.90;;;;;;4973553;28;20460;-77
2020/12/13 10:31:30;;;;;;;7.47;4.88;;;10.20;80.90;;;;;;4967340;28;20788;-77
2020/12/13 10:33:57;;;;;;;6.63;5.03;;;10.20;80.90;;;;;;4974304;28;20037;-78
2020/12/13 10:36:23;;;;;;;8.27;5.15;;;10.20;80.80;;;;;;4988474;28;20387;-77
2020/12/13 10:38:51;;;;;;;7.88;5.40;;;10.20;80.80;;;;;;4989185;28;20031;-78
2020/12/13 10:41:21;;;;;;;6.82;5.10;;;10.20;80.80;;;;;;4960990;28;20034;-77
2020/12/13 10:43:48;;;;;;;7.22;5.63;;;10.20;80.80;;;;;;4979869;28;20049;-80
2020/12/13 10:49:02;;;;;;;6.93;5.25;;;10.20;80.80;;;;;;5786921;23;20057;-75
2020/12/13 10:51:28;;;;;;;8.30;5.93;;;10.20;80.70;;;;;;5021439;28;20034;-76
2020/12/13 10:53:54;;;;;;;7.43;5.18;;;10.30;80.80;;;;;;5018034;28;20041;-75
2020/12/13 10:56:19;;;;;;;8.20;5.47;;;10.30;80.80;;;;;;4993282;28;20160;-78
2020/12/13 10:58:45;;;;;;;8.43;5.55;;;10.30;80.80;;;;;;4978587;28;20037;-76
2020/12/13 11:01:12;;;;;;;7.47;5.65;;;10.30;80.80;;;;;;5011634;28;20117;-75
2020/12/13 11:03:38;;;;;;;7.40;5.28;;;10.30;80.80;;;;;;5010897;28;20030;-75
2020/12/13 11:06:04;;;;;;;8.63;5.68;;;10.30;80.80;;;;;;5011975;28;20113;-74
2020/12/13 11:08:30;;;;;;;8.05;5.90;;;10.30;80.70;;;;;;4993827;28;20117;-75
2020/12/13 11:10:55;;;;;;;7.38;5.43;;;10.30;80.80;;;;;;4994766;28;20034;-74
2020/12/13 11:13:21;;;;;;;8.35;5.43;;;10.30;80.70;;;;;;5011234;28;20042;-79
2020/12/13 11:15:47;;;;;;;9.00;6.22;;;10.30;80.70;;;;;;5011668;28;20363;-75
2020/12/13 11:18:13;;;;;;;8.40;6.00;;;10.30;80.70;;;;;;4979306;28;20022;-75
2020/12/13 11:20:39;;;;;;;8.15;6.35;;;10.30;80.70;;;;;;4984558;28;20030;-75
2020/12/13 11:23:05;;;;;;;8.32;5.90;;;10.40;80.70;;;;;;5040273;28;20049;-75
2020/12/13 11:25:31;;;;;;;8.77;5.63;;;10.40;80.70;;;;;;4991050;28;20014;-75
2020/12/13 11:27:58;;;;;;;8.52;5.88;;;10.40;80.70;;;;;;5000214;28;20477;-75
2020/12/13 11:30:24;;;;;;;7.88;5.95;;;10.40;80.70;;;;;;5007113;28;20014;-83
2020/12/13 11:32:50;;;;;;;7.93;5.30;;;10.40;80.70;;;;;;5004714;28;20050;-77
2020/12/13 11:35:17;;;;;;;8.00;5.93;;;10.40;80.70;;;;;;4974065;28;20156;-79
2020/12/13 11:37:43;;;;;;;7.95;6.03;;;10.40;80.70;;;;;;5003353;28;20175;-75
2020/12/13 11:40:09;;;;;;;7.97;6.03;;;10.40;80.70;;;;;;5001902;28;20040;-76
2020/12/13 11:42:35;;;;;;;7.70;5.85;;;10.40;80.60;;;;;;4990179;28;20037;-74
2020/12/13 11:45:03;;;;;;;8.00;5.95;;;10.40;80.60;;;;;;4993317;28;20061;-76
2020/12/13 11:47:28;;;;;;;7.38;5.57;;;10.50;80.70;;;;;;5005256;28;20466;-75
2020/12/13 11:49:54;;;;;;;8.32;6.07;;;10.50;80.70;;;;;;5000795;28;20117;-75
2020/12/13 11:52:20;;;;;;;8.02;5.53;;;10.50;81.30;;;;;;5020978;28;20363;-76
2020/12/13 11:54:46;;;;;;;7.80;5.90;;;10.50;80.60;;;;;;5015611;28;20113;-76
2020/12/13 11:57:12;;;;;;;7.43;5.47;;;10.50;80.60;;;;;;5045241;28;20119;-75
2020/12/13 11:59:38;;;;;;;7.80;5.35;;;10.50;80.60;;;;;;5012793;28;20033;-75
2020/12/13 12:02:04;;;;;;;7.45;5.38;;;10.50;80.60;;;;;;5045871;28;20037;-75
2020/12/13 12:04:30;;;;;;;7.25;5.35;;;10.50;80.60;;;;;;5013313;28;20033;-76
2020/12/13 12:06:56;;;;;;;7.80;5.30;;;10.50;80.50;;;;;;5036809;28;20031;-75
2020/12/13 12:09:22;;;;;;;7.72;5.50;;;10.60;80.60;;;;;;4997878;28;20027;-74
2020/12/13 12:11:48;;;;;;;7.30;5.43;;;10.60;80.60;;;;;;5021733;28;20045;-75
2020/12/13 12:14:14;;;;;;;7.47;4.70;;;10.60;80.60;;;;;;5013034;28;20026;-75
2020/12/13 12:16:41;;;;;;;6.82;5.20;;;10.60;80.60;;;;;;5045981;28;20397;-76
2020/12/13 12:19:08;;;;;;;7.22;4.93;;;10.60;80.60;;;;;;5009920;28;20101;-77
2020/12/13 12:21:35;;;;;;;6.50;4.90;;;10.60;80.50;;;;;;5011587;28;20486;-74
2020/12/13 12:24:03;;;;;;;6.07;4.70;;;10.60;80.50;;;;;;5014663;28;20413;-75
2020/12/13 12:26:35;;;;;;;5.90;4.63;;;10.60;80.50;;;;;;4982249;28;20026;-75
2020/12/13 12:29:01;;;;;;;6.10;4.65;;;10.70;80.60;;;;;;4998228;28;20026;-75
2020/12/13 12:31:28;;;;;;;6.85;4.70;;;10.70;80.50;;;;;;5014309;28;20030;-77
2020/12/13 12:33:54;;;;;;;6.85;4.60;;;10.60;80.50;;;;;;5015615;28;20018;-75
2020/12/13 12:36:21;;;;;;;6.30;4.50;;;10.70;80.50;;;;;;5014097;28;20061;-75
2020/12/13 12:38:48;;;;;;;6.80;4.90;;;10.70;80.50;;;;;;5012343;28;20034;-75
2020/12/13 12:41:15;;;;;;;6.68;4.75;;;10.70;80.50;;;;;;5037845;28;20120;-76
2020/12/13 12:43:42;;;;;;;7.43;4.65;;;10.70;80.60;;;;;;5015230;28;20038;-75
2020/12/13 12:46:08;;;;;;;5.18;4.03;;;10.70;80.50;;;;;;4979715;28;20077;-75
2020/12/13 12:48:34;;;;;;;5.70;4.07;;;10.70;80.50;;;;;;5031886;28;20053;-76
2020/12/13 12:51:01;;;;;;;6.18;4.75;;;10.70;80.50;;;;;;5008387;28;20027;-75
2020/12/13 12:53:28;;;;;;;5.57;4.35;;;10.70;80.50;;;;;;4995979;28;20041;-75
2020/12/13 12:55:53;;;;;;;6.13;4.22;;;10.70;80.50;;;;;;5012726;28;20025;-75
2020/12/13 12:58:19;;;;;;;6.57;4.20;;;10.70;80.40;;;;;;5011103;28;20033;-74
2020/12/13 13:00:49;;;;;;;6.00;4.45;;;10.70;80.40;;;;;;5011028;28;20034;-75
2020/12/13 13:03:15;;;;;;;6.50;4.45;;;10.70;80.40;;;;;;5017310;28;20033;-75
2020/12/13 13:08:17;;;;;;;5.93;4.22;;;10.70;80.50;;;;;;5014693;28;20076;-76